Time;durP1;ratioP1;P1;durP2;ratioP2;P2;SDS_P1;SDS_P2;PMS_P1;PMS_P2;Temp;Humidity;BMP_temperature;BMP_pressure;BME280_temperature;BME280_humidity;BME280_pressure;Samples;Min_cycle;Max_cycle;Signal;HPM_P1;HPM_P2
2022/10/29 00:00:53;;;;;;;48.83;45.80;;;11.40;99.90;;;;;;5087446;28;20189;-86
2022/10/29 00:03:19;;;;;;;37.37;34.57;;;11.40;99.90;;;;;;5085142;28;20239;-85
2022/10/29 00:06:07;;;;;;;26.97;24.27;;;11.30;99.90;;;;;;5073364;28;20192;-85
2022/10/29 00:08:35;;;;;;;23.27;21.63;;;11.30;99.90;;;;;;5076577;28;20182;-85
2022/10/29 00:11:11;;;;;;;23.87;21.80;;;11.30;99.90;;;;;;5076499;28;20213;-84
2022/10/29 00:13:37;;;;;;;26.97;24.87;;;11.20;99.90;;;;;;5073157;28;20188;-85
2022/10/29 00:16:09;;;;;;;26.23;24.33;;;11.20;99.90;;;;;;5069836;28;20264;-84
2022/10/29 00:18:35;;;;;;;29.10;27.10;;;11.20;99.90;;;;;;5068876;28;20189;-84
2022/10/29 00:21:06;;;;;;;29.13;27.13;;;11.20;99.90;;;;;;5068382;28;20232;-84
2022/10/29 00:23:33;;;;;;;28.47;26.50;;;11.10;99.90;;;;;;5072914;28;20173;-85
2022/10/29 00:26:00;;;;;;;25.83;23.80;;;11.10;99.90;;;;;;5087299;28;20210;-85
2022/10/29 00:28:26;;;;;;;39.93;37.53;;;11.00;99.90;;;;;;5087075;28;20193;-84
2022/10/29 00:30:52;;;;;;;24.13;22.33;;;11.00;99.90;;;;;;5086538;28;20185;-85
2022/10/29 00:33:19;;;;;;;24.30;22.57;;;11.00;99.90;;;;;;5084560;28;20189;-85
2022/10/29 00:35:58;;;;;;;44.57;41.90;;;11.00;99.90;;;;;;5085720;28;20689;-84
2022/10/29 00:38:25;;;;;;;25.40;23.83;;;11.00;99.90;;;;;;5086139;28;20188;-84
2022/10/29 00:40:51;;;;;;;16.17;15.03;;;11.00;99.90;;;;;;5083084;28;20642;-86
2022/10/29 00:43:19;;;;;;;15.73;14.23;;;11.00;99.90;;;;;;5082434;28;20182;-85
2022/10/29 00:46:01;;;;;;;15.50;14.40;;;10.80;99.90;;;;;;5082865;28;20244;-85
2022/10/29 00:48:30;;;;;;;15.13;13.63;;;10.80;99.90;;;;;;5083603;28;20199;-84
2022/10/29 00:50:58;;;;;;;13.10;11.43;;;10.80;99.90;;;;;;5081041;28;20180;-84
2022/10/29 00:53:29;;;;;;;14.43;13.33;;;10.70;99.90;;;;;;5079804;28;20202;-85
2022/10/29 00:55:56;;;;;;;16.67;14.77;;;10.70;99.90;;;;;;5069951;28;20210;-84
2022/10/29 00:58:22;;;;;;;21.73;20.13;;;10.70;99.90;;;;;;5063141;28;20185;-84
2022/10/29 01:00:48;;;;;;;22.73;21.20;;;10.70;99.90;;;;;;5062088;28;20178;-84
2022/10/29 01:03:13;;;;;;;20.67;19.00;;;10.70;99.90;;;;;;5062981;28;20708;-85
2022/10/29 01:05:40;;;;;;;31.60;29.07;;;10.70;99.90;;;;;;5080004;28;20236;-85
2022/10/29 01:08:05;;;;;;;25.63;22.63;;;10.80;99.90;;;;;;5078622;28;20655;-83
2022/10/29 01:11:16;;;;;;;20.50;18.40;;;10.70;99.90;;;;;;5080928;28;20186;-83
2022/10/29 01:13:59;;;;;;;20.67;18.93;;;10.70;99.90;;;;;;5058783;28;20193;-85
2022/10/29 01:16:28;;;;;;;31.87;29.30;;;10.90;99.90;;;;;;5079732;28;20213;-84
2022/10/29 01:19:18;;;;;;;40.80;38.07;;;11.00;99.90;;;;;;5091339;28;20193;-85
2022/10/29 01:22:08;;;;;;;41.20;38.43;;;11.10;99.90;;;;;;5095414;28;20174;-85
2022/10/29 01:25:10;;;;;;;22.07;19.93;;;11.10;99.90;;;;;;5082464;28;20217;-85
2022/10/29 01:27:54;;;;;;;28.37;26.17;;;11.20;99.90;;;;;;5072083;28;20225;-84
2022/10/29 01:30:45;;;;;;;25.37;23.57;;;11.20;99.90;;;;;;5070445;28;20205;-85
2022/10/29 01:33:13;;;;;;;13.23;11.77;;;11.20;99.90;;;;;;5070722;28;20200;-84
2022/10/29 01:35:51;;;;;;;36.87;34.20;;;11.10;99.90;;;;;;5094178;28;20205;-85
2022/10/29 01:38:39;;;;;;;10.53;8.97;;;11.10;99.90;;;;;;5094246;28;20287;-84
2022/10/29 01:41:11;;;;;;;8.90;8.30;;;11.10;99.90;;;;;;5092697;28;20170;-85
2022/10/29 01:43:55;;;;;;;10.40;7.03;;;11.00;99.90;;;;;;5092688;28;20181;-84
2022/10/29 01:46:34;;;;;;;7.10;6.50;;;11.00;99.90;;;;;;5091141;28;20216;-85
2022/10/29 01:49:06;;;;;;;11.83;10.57;;;11.00;99.90;;;;;;5091321;28;20249;-84
2022/10/29 01:51:34;;;;;;;10.93;9.13;;;11.10;99.90;;;;;;5087910;28;20249;-85
2022/10/29 01:54:05;;;;;;;11.67;10.67;;;11.10;99.90;;;;;;5083578;28;20186;-84
2022/10/29 01:56:31;;;;;;;9.30;8.30;;;11.10;99.90;;;;;;5088517;28;20231;-85
2022/10/29 01:58:58;;;;;;;11.97;10.80;;;11.10;99.90;;;;;;5085352;28;20177;-85
2022/10/29 02:01:51;;;;;;;9.20;7.97;;;11.10;99.90;;;;;;5085216;28;20177;-84
2022/10/29 02:04:57;;;;;;;9.23;8.63;;;11.10;99.90;;;;;;5084554;28;20521;-84
2022/10/29 02:07:29;;;;;;;15.47;9.80;;;11.20;99.90;;;;;;5096158;28;20223;-85
2022/10/29 02:10:06;;;;;;;9.23;8.33;;;11.20;99.90;;;;;;5094443;28;20215;-85
2022/10/29 02:12:40;;;;;;;12.40;11.30;;;11.10;99.90;;;;;;5092866;28;20176;-85
2022/10/29 02:15:11;;;;;;;14.47;13.07;;;11.10;99.90;;;;;;5091696;28;20177;-85
2022/10/29 02:17:38;;;;;;;30.47;28.27;;;11.10;99.90;;;;;;5092614;28;20209;-85
2022/10/29 02:20:07;;;;;;;35.97;33.67;;;11.10;99.90;;;;;;5090752;28;20174;-84
2022/10/29 02:22:32;;;;;;;22.83;21.23;;;11.10;99.90;;;;;;5093084;28;20177;-85
2022/10/29 02:24:58;;;;;;;61.13;57.23;;;11.00;99.90;;;;;;5083352;28;20179;-85
2022/10/29 02:27:24;;;;;;;31.77;29.47;;;11.00;99.90;;;;;;5080081;28;20213;-85
2022/10/29 02:29:50;;;;;;;24.47;22.43;;;10.90;99.90;;;;;;5087977;28;20253;-85
2022/10/29 02:32:16;;;;;;;18.60;17.33;;;10.80;99.90;;;;;;5088390;28;20187;-84
2022/10/29 02:34:41;;;;;;;14.17;12.77;;;10.70;99.90;;;;;;5085810;28;20182;-84
2022/10/29 02:37:07;;;;;;;20.13;18.30;;;10.70;99.90;;;;;;5086615;28;20210;-83
2022/10/29 02:39:33;;;;;;;39.40;37.03;;;10.70;99.90;;;;;;5071538;28;20186;-84
2022/10/29 02:41:59;;;;;;;60.17;56.67;;;10.70;99.90;;;;;;5066600;28;20279;-83
2022/10/29 02:44:24;;;;;;;28.70;26.93;;;10.70;99.90;;;;;;5066302;28;20178;-84
2022/10/29 02:46:50;;;;;;;14.07;13.20;;;10.70;99.90;;;;;;5065739;28;20218;-83
2022/10/29 02:49:19;;;;;;;18.33;15.47;;;10.80;99.90;;;;;;5068167;28;20559;-84
2022/10/29 02:51:45;;;;;;;14.57;11.63;;;10.80;99.90;;;;;;5086424;28;20196;-84
2022/10/29 02:54:14;;;;;;;13.83;12.83;;;10.90;99.90;;;;;;5082630;28;20277;-84
2022/10/29 02:56:40;;;;;;;12.07;10.83;;;10.90;99.90;;;;;;5067494;28;20584;-84
2022/10/29 02:59:05;;;;;;;9.37;8.53;;;10.90;99.90;;;;;;5071784;28;20189;-83
2022/10/29 03:01:31;;;;;;;13.07;9.70;;;10.80;99.90;;;;;;5078589;28;20191;-84
2022/10/29 03:03:57;;;;;;;11.30;10.33;;;10.90;99.90;;;;;;5081455;28;20167;-84
2022/10/29 03:06:23;;;;;;;10.90;9.47;;;10.90;99.90;;;;;;5093133;28;20208;-84
2022/10/29 03:08:49;;;;;;;10.17;8.80;;;10.90;99.90;;;;;;5093290;28;20249;-84
2022/10/29 03:11:15;;;;;;;12.33;10.80;;;10.90;99.90;;;;;;5091948;28;20182;-84
2022/10/29 03:13:41;;;;;;;27.83;25.97;;;10.90;99.90;;;;;;5090848;28;20188;-84
2022/10/29 03:16:07;;;;;;;59.03;55.53;;;10.90;99.90;;;;;;5090505;28;20596;-84
2022/10/29 03:18:33;;;;;;;43.20;40.37;;;10.90;99.90;;;;;;5089101;28;20173;-84
2022/10/29 03:20:59;;;;;;;60.83;57.37;;;11.00;99.90;;;;;;5087776;28;20192;-83
2022/10/29 03:23:25;;;;;;;70.73;66.43;;;11.00;99.90;;;;;;5086151;28;20178;-84
2022/10/29 03:25:55;;;;;;;70.17;66.27;;;11.10;99.90;;;;;;5085678;28;20712;-84
2022/10/29 03:28:22;;;;;;;73.53;69.43;;;11.20;99.90;;;;;;5095017;28;20579;-84
2022/10/29 03:30:47;;;;;;;75.70;71.50;;;11.10;99.90;;;;;;5090609;28;20181;-84
2022/10/29 03:33:13;;;;;;;72.30;67.93;;;11.10;99.90;;;;;;5088533;28;20212;-84
2022/10/29 03:35:39;;;;;;;61.30;57.67;;;11.20;99.90;;;;;;5083903;28;20202;-84
2022/10/29 03:38:05;;;;;;;44.30;41.70;;;11.30;99.90;;;;;;5065743;28;20202;-83
2022/10/29 03:40:31;;;;;;;50.23;46.93;;;11.40;99.90;;;;;;5064058;28;20196;-84
2022/10/29 03:42:57;;;;;;;53.53;50.10;;;11.40;99.90;;;;;;5064139;28;20167;-84
2022/10/29 03:45:23;;;;;;;33.87;31.77;;;11.40;99.90;;;;;;5064151;28;20171;-83
2022/10/29 03:47:48;;;;;;;72.13;67.93;;;11.40;99.90;;;;;;5066846;28;20725;-83
2022/10/29 03:50:14;;;;;;;81.30;75.83;;;11.50;99.90;;;;;;5083802;28;20181;-84
2022/10/29 03:52:51;;;;;;;85.30;80.30;;;11.50;99.90;;;;;;5082675;28;20253;-84
2022/10/29 03:55:40;;;;;;;62.33;57.87;;;11.50;99.90;;;;;;5060522;28;20235;-85
2022/10/29 03:58:06;;;;;;;34.53;32.20;;;11.60;99.90;;;;;;5083332;28;20216;-85
2022/10/29 04:00:31;;;;;;;19.33;17.83;;;11.60;99.90;;;;;;5083392;28;20193;-84
2022/10/29 04:02:57;;;;;;;12.20;10.97;;;11.60;99.90;;;;;;5088124;28;20264;-84
2022/10/29 04:05:23;;;;;;;18.47;13.43;;;11.70;99.90;;;;;;5095627;28;20578;-85
2022/10/29 04:07:49;;;;;;;21.37;19.43;;;11.70;99.90;;;;;;5091260;28;20170;-85
2022/10/29 04:10:17;;;;;;;11.60;10.13;;;11.80;99.90;;;;;;5091731;28;20192;-86
2022/10/29 04:12:45;;;;;;;15.93;11.70;;;11.80;99.90;;;;;;5091250;28;20181;-85
2022/10/29 04:15:11;;;;;;;24.10;19.60;;;11.80;99.90;;;;;;5090475;28;20182;-86
2022/10/29 04:17:37;;;;;;;16.47;13.93;;;11.80;99.90;;;;;;5086970;28;20228;-86
2022/10/29 04:20:03;;;;;;;13.20;10.43;;;11.80;99.90;;;;;;5086458;28;20245;-86
2022/10/29 04:22:29;;;;;;;11.27;8.63;;;11.80;99.90;;;;;;5086173;28;20272;-86
2022/10/29 04:24:55;;;;;;;15.73;8.50;;;11.80;99.90;;;;;;5090859;28;20173;-85
2022/10/29 04:27:20;;;;;;;9.17;8.00;;;11.80;99.90;;;;;;5090849;28;20206;-86
2022/10/29 04:29:46;;;;;;;13.90;8.57;;;11.80;99.90;;;;;;5088718;28;20186;-85
2022/10/29 04:32:12;;;;;;;13.33;7.73;;;11.90;99.90;;;;;;5083799;28;20185;-85
2022/10/29 04:34:38;;;;;;;8.87;7.90;;;11.80;99.90;;;;;;5089043;28;20189;-85
2022/10/29 04:37:04;;;;;;;8.60;7.73;;;11.80;99.90;;;;;;5089395;28;20201;-85
2022/10/29 04:39:31;;;;;;;8.50;7.67;;;11.80;99.90;;;;;;5072490;28;20197;-83
2022/10/29 04:41:57;;;;;;;13.97;8.70;;;11.80;99.90;;;;;;5071001;28;20178;-84
2022/10/29 04:44:22;;;;;;;8.37;7.33;;;11.70;99.90;;;;;;5075544;28;20220;-84
2022/10/29 04:46:48;;;;;;;13.13;8.17;;;11.70;99.90;;;;;;5079414;23;20223;-77
2022/10/29 04:49:14;;;;;;;12.90;8.97;;;11.70;99.90;;;;;;5031331;28;20179;-79
2022/10/29 04:51:40;;;;;;;9.63;8.00;;;11.70;99.90;;;;;;5032424;28;20695;-78
2022/10/29 04:54:05;;;;;;;13.73;12.33;;;11.80;99.90;;;;;;5032571;28;20190;-78
2022/10/29 04:56:31;;;;;;;17.77;16.00;;;11.70;99.90;;;;;;5031718;28;20218;-79
2022/10/29 04:58:57;;;;;;;13.90;12.43;;;11.80;99.90;;;;;;5034289;28;20186;-78
2022/10/29 05:01:22;;;;;;;14.10;11.30;;;11.80;99.90;;;;;;5034907;28;20582;-77
2022/10/29 05:03:48;;;;;;;14.93;13.80;;;11.80;99.90;;;;;;5035556;28;20264;-78
2022/10/29 05:06:14;;;;;;;16.17;14.53;;;11.80;99.90;;;;;;5036481;28;20206;-80
2022/10/29 05:08:40;;;;;;;16.17;12.53;;;11.80;99.90;;;;;;5034517;28;20179;-78
2022/10/29 05:11:06;;;;;;;11.73;10.57;;;11.80;99.90;;;;;;5034930;28;20209;-78
2022/10/29 05:13:32;;;;;;;12.73;11.43;;;11.70;99.90;;;;;;5034760;28;20262;-78
2022/10/29 05:15:58;;;;;;;13.60;9.90;;;11.70;99.90;;;;;;5038790;28;20171;-78
2022/10/29 05:18:24;;;;;;;11.13;9.23;;;11.60;99.90;;;;;;5037124;28;20189;-78
2022/10/29 05:20:54;;;;;;;12.60;9.00;;;11.50;99.90;;;;;;5035674;28;20183;-78
2022/10/29 05:23:20;;;;;;;14.47;8.70;;;11.50;99.90;;;;;;5034410;28;20206;-78
2022/10/29 05:25:48;;;;;;;14.60;9.10;;;11.40;99.90;;;;;;5034510;28;20181;-78
2022/10/29 05:28:19;;;;;;;13.73;10.33;;;11.30;99.90;;;;;;5029970;28;20554;-78
2022/10/29 05:30:46;;;;;;;23.93;14.10;;;11.30;99.90;;;;;;5027987;28;20187;-77
2022/10/29 05:33:14;;;;;;;23.33;12.83;;;11.20;99.90;;;;;;5034122;28;20553;-77
2022/10/29 05:35:40;;;;;;;24.73;13.67;;;11.30;99.90;;;;;;5034969;28;20218;-78
2022/10/29 05:38:06;;;;;;;13.17;11.73;;;11.20;99.90;;;;;;5034317;28;20241;-78
2022/10/29 05:40:32;;;;;;;12.27;11.00;;;11.20;99.90;;;;;;5033784;28;20705;-77
2022/10/29 05:42:58;;;;;;;13.77;12.47;;;11.10;99.90;;;;;;5039826;28;20305;-78
2022/10/29 05:45:24;;;;;;;15.33;11.33;;;11.00;99.90;;;;;;5040129;28;20247;-77
2022/10/29 05:48:01;;;;;;;15.13;13.67;;;11.00;99.90;;;;;;5037034;28;20250;-79
2022/10/29 05:50:28;;;;;;;18.73;17.10;;;10.90;99.90;;;;;;5036575;28;20195;-78
2022/10/29 05:52:57;;;;;;;37.40;34.77;;;10.80;99.90;;;;;;5034585;28;20189;-78
2022/10/29 05:55:24;;;;;;;43.63;40.97;;;10.80;99.90;;;;;;5034364;28;20179;-78
2022/10/29 05:57:53;;;;;;;51.67;48.47;;;10.80;99.90;;;;;;5034468;28;20642;-78
2022/10/29 06:00:19;;;;;;;47.13;43.93;;;10.70;99.90;;;;;;5034241;28;20182;-78
2022/10/29 06:02:45;;;;;;;33.63;31.33;;;10.70;99.90;;;;;;5034228;28;20640;-78
2022/10/29 06:05:11;;;;;;;44.60;41.13;;;10.60;99.90;;;;;;5035635;28;20182;-78
2022/10/29 06:07:36;;;;;;;43.93;40.83;;;10.50;99.90;;;;;;5032616;28;20207;-77
2022/10/29 06:10:02;;;;;;;40.37;37.87;;;10.50;99.90;;;;;;5032801;28;20191;-75
2022/10/29 06:12:31;;;;;;;36.83;33.93;;;10.50;99.90;;;;;;5032877;28;20230;-77
2022/10/29 06:14:57;;;;;;;30.43;28.03;;;10.40;99.90;;;;;;5033518;28;20214;-77
2022/10/29 06:17:23;;;;;;;21.97;17.13;;;10.40;99.90;;;;;;5032828;28;20214;-67
2022/10/29 06:19:49;;;;;;;15.00;13.27;;;10.50;99.90;;;;;;5030504;28;20193;-80
2022/10/29 06:22:15;;;;;;;20.37;18.70;;;10.50;99.90;;;;;;5020353;28;20175;-79
2022/10/29 06:24:40;;;;;;;15.60;14.07;;;10.40;99.90;;;;;;5038182;28;20175;-77
2022/10/29 06:27:06;;;;;;;25.73;24.20;;;10.50;99.90;;;;;;5036238;28;20203;-78
2022/10/29 06:29:32;;;;;;;21.10;19.40;;;10.50;99.90;;;;;;5032608;28;20194;-79
2022/10/29 06:31:58;;;;;;;20.43;18.83;;;10.60;99.90;;;;;;5034281;28;20202;-79
2022/10/29 06:34:23;;;;;;;20.60;19.33;;;10.60;99.90;;;;;;5033492;28;20237;-79
2022/10/29 06:36:49;;;;;;;18.63;17.27;;;10.60;99.90;;;;;;5034598;28;20217;-80
2022/10/29 06:39:15;;;;;;;16.23;14.83;;;10.60;99.90;;;;;;5034994;28;20185;-79
2022/10/29 06:41:41;;;;;;;17.33;15.93;;;10.60;99.90;;;;;;5032769;28;20552;-77
2022/10/29 06:44:06;;;;;;;17.80;16.30;;;10.70;99.90;;;;;;5031829;28;20258;-77
2022/10/29 06:46:33;;;;;;;15.53;14.00;;;10.80;99.90;;;;;;5031850;28;20213;-79
2022/10/29 06:49:01;;;;;;;18.77;17.40;;;10.80;99.90;;;;;;5031509;28;20183;-78
2022/10/29 06:51:26;;;;;;;19.23;17.63;;;10.80;99.90;;;;;;5031718;28;20590;-78
2022/10/29 06:53:53;;;;;;;27.43;25.73;;;10.90;99.90;;;;;;5032942;28;20190;-78
2022/10/29 06:56:19;;;;;;;28.17;26.13;;;11.00;99.90;;;;;;5032863;28;20260;-78
2022/10/29 06:58:46;;;;;;;28.47;26.80;;;11.10;99.90;;;;;;5032762;28;20186;-78
2022/10/29 07:01:11;;;;;;;14.77;13.33;;;11.10;99.90;;;;;;5032962;28;20537;-78
2022/10/29 07:03:37;;;;;;;17.90;16.50;;;11.20;99.90;;;;;;5030916;28;20171;-78
2022/10/29 07:06:03;;;;;;;13.93;12.73;;;11.30;99.90;;;;;;5032661;28;20175;-78
2022/10/29 07:08:29;;;;;;;11.97;8.67;;;11.40;99.90;;;;;;5032361;28;20219;-78
2022/10/29 07:10:55;;;;;;;19.20;11.80;;;11.40;99.90;;;;;;5032840;28;20189;-78
2022/10/29 07:13:21;;;;;;;33.77;31.57;;;11.50;99.90;;;;;;5032728;28;20733;-78
2022/10/29 07:15:47;;;;;;;158.07;149.43;;;11.70;99.90;;;;;;5034530;28;20179;-78
2022/10/29 07:18:13;;;;;;;40.87;38.27;;;11.80;99.90;;;;;;5031796;28;20215;-78
2022/10/29 07:20:41;;;;;;;15.30;13.90;;;12.00;99.90;;;;;;5032459;28;20727;-78
2022/10/29 07:23:07;;;;;;;14.13;8.77;;;12.10;99.90;;;;;;5032160;28;20236;-78
2022/10/29 07:25:35;;;;;;;23.43;21.63;;;12.30;99.90;;;;;;5032809;28;20593;-78
2022/10/29 07:28:15;;;;;;;20.37;18.87;;;12.40;99.90;;;;;;5030985;28;20203;-78
2022/10/29 07:30:42;;;;;;;18.53;16.80;;;12.70;99.90;;;;;;5029374;28;20179;-81
2022/10/29 07:33:09;;;;;;;82.93;78.27;;;13.00;99.90;;;;;;5026823;28;20203;-78
2022/10/29 07:35:35;;;;;;;58.20;53.90;;;13.20;99.90;;;;;;5012570;28;20195;-78
2022/10/29 07:38:02;;;;;;;17.37;15.17;;;13.60;99.90;;;;;;5010875;28;20241;-78
2022/10/29 07:40:28;;;;;;;11.43;8.23;;;14.00;99.90;;;;;;5012148;28;20176;-79
2022/10/29 07:42:54;;;;;;;20.63;18.77;;;14.30;99.90;;;;;;5023717;28;20189;-78
2022/10/29 07:45:20;;;;;;;21.83;19.97;;;14.60;99.90;;;;;;5032004;28;20210;-78
2022/10/29 07:47:46;;;;;;;20.40;18.50;;;14.80;99.90;;;;;;5033884;28;20585;-76
2022/10/29 07:50:12;;;;;;;19.83;17.80;;;15.10;99.90;;;;;;5032233;28;20702;-76
2022/10/29 07:52:39;;;;;;;12.80;11.67;;;15.30;99.90;;;;;;5031388;28;20183;-76
2022/10/29 07:55:06;;;;;;;15.83;12.30;;;15.20;99.90;;;;;;5031800;28;20193;-76
2022/10/29 07:57:32;;;;;;;14.47;13.00;;;15.10;99.90;;;;;;5034628;28;20631;-77
2022/10/29 07:59:57;;;;;;;11.13;10.00;;;15.10;99.90;;;;;;5033818;28;20183;-78
2022/10/29 08:02:23;;;;;;;18.93;17.03;;;15.30;99.90;;;;;;5033875;28;20683;-78
2022/10/29 08:04:49;;;;;;;13.07;10.90;;;15.60;99.90;;;;;;5036695;28;20194;-78
2022/10/29 08:07:15;;;;;;;14.77;13.40;;;16.10;99.90;;;;;;5035654;28;20194;-78
2022/10/29 08:09:41;;;;;;;18.30;16.80;;;16.30;99.90;;;;;;5034455;28;20187;-78
2022/10/29 08:12:10;;;;;;;28.63;26.43;;;16.60;99.90;;;;;;5035347;28;20187;-78
2022/10/29 08:14:35;;;;;;;23.40;20.43;;;17.10;99.90;;;;;;5034066;28;20648;-78
2022/10/29 08:17:01;;;;;;;9.83;8.57;;;17.30;99.90;;;;;;5034803;28;20227;-78
2022/10/29 08:19:28;;;;;;;22.23;20.00;;;17.70;99.90;;;;;;5033001;28;20187;-78
2022/10/29 08:21:55;;;;;;;22.67;20.87;;;17.70;99.90;;;;;;5033633;28;20938;-78
2022/10/29 08:24:21;;;;;;;31.77;29.37;;;18.10;99.90;;;;;;5032618;28;20233;-78
2022/10/29 08:26:48;;;;;;;18.90;16.93;;;18.40;99.90;;;;;;5033745;28;20199;-78
2022/10/29 08:29:14;;;;;;;20.63;18.70;;;18.50;99.90;;;;;;5033447;28;20560;-78
2022/10/29 08:31:40;;;;;;;26.23;22.53;;;18.50;99.90;;;;;;5035053;28;20179;-78
2022/10/29 08:34:05;;;;;;;23.63;15.93;;;18.50;99.90;;;;;;5034442;28;20191;-78
2022/10/29 08:36:31;;;;;;;13.03;9.90;;;18.60;99.90;;;;;;5035960;28;20206;-78
2022/10/29 08:38:57;;;;;;;16.50;15.17;;;19.00;99.90;;;;;;5034313;28;20183;-78
2022/10/29 08:41:49;;;;;;;23.63;21.33;;;19.20;99.90;;;;;;5035838;28;20285;-78
2022/10/29 08:44:43;;;;;;;23.90;21.93;;;19.30;99.90;;;;;;5019213;28;20585;-78
2022/10/29 08:47:21;;;;;;;19.30;17.60;;;19.60;99.90;;;;;;5016017;28;20298;-78
2022/10/29 08:50:04;;;;;;;16.03;12.13;;;19.90;99.90;;;;;;5015872;28;20198;-78
2022/10/29 08:52:41;;;;;;;10.13;9.03;;;19.80;99.90;;;;;;5022835;28;20183;-76
2022/10/29 08:55:19;;;;;;;15.53;9.60;;;19.70;99.90;;;;;;5035567;28;20187;-78
2022/10/29 08:57:56;;;;;;;15.63;7.97;;;19.70;99.90;;;;;;5033051;28;20220;-77
2022/10/29 09:00:34;;;;;;;12.47;8.97;;;19.70;99.90;;;;;;5035199;28;20178;-78
2022/10/29 09:03:00;;;;;;;14.23;10.50;;;20.00;99.90;;;;;;5034116;28;20187;-78
2022/10/29 09:05:37;;;;;;;13.73;12.60;;;20.10;99.90;;;;;;5035779;28;20187;-76
2022/10/29 09:08:21;;;;;;;25.63;23.23;;;20.10;99.90;;;;;;5035182;28;20206;-77
2022/10/29 09:10:53;;;;;;;57.43;54.23;;;20.50;99.90;;;;;;5033955;28;20598;-76
2022/10/29 09:13:53;;;;;;;68.33;64.27;;;21.20;99.90;;;;;;5032190;28;20194;-76
2022/10/29 09:16:55;;;;;;;58.60;54.90;;;21.60;99.90;;;;;;5034084;28;20221;-76
2022/10/29 09:19:36;;;;;;;38.67;36.13;;;22.20;99.90;;;;;;5033318;28;20185;-77
2022/10/29 09:22:21;;;;;;;18.67;17.10;;;21.80;99.90;;;;;;5032840;28;20182;-77
2022/10/29 09:25:06;;;;;;;20.58;18.95;;;22.00;99.90;;;;;;5034087;28;20555;-77
2022/10/29 09:27:43;;;;;;;29.90;27.83;;;22.20;99.90;;;;;;5033831;28;20230;-77
2022/10/29 09:30:16;;;;;;;33.63;31.35;;;22.20;99.90;;;;;;5032263;28;20183;-77
2022/10/29 09:33:00;;;;;;;37.30;34.78;;;22.20;99.90;;;;;;5032941;28;20198;-76
2022/10/29 09:35:43;;;;;;;26.98;24.70;;;22.50;99.90;;;;;;5032806;28;20190;-77
2022/10/29 09:38:19;;;;;;;25.13;22.88;;;22.90;99.90;;;;;;5030515;28;20218;-77
2022/10/29 09:40:45;;;;;;;29.55;26.98;;;23.30;99.90;;;;;;5031494;28;20206;-76
2022/10/29 09:43:44;;;;;;;60.15;56.45;;;23.70;99.90;;;;;;5032984;28;20214;-77
2022/10/29 09:46:44;;;;;;;66.63;62.47;;;24.30;99.90;;;;;;5038133;28;20199;-77
2022/10/29 09:49:10;;;;;;;44.80;42.10;;;24.60;99.90;;;;;;5035462;28;20555;-77
2022/10/29 09:51:40;;;;;;;48.95;45.70;;;24.90;99.90;;;;;;5033874;28;20185;-76
2022/10/29 09:54:06;;;;;;;22.67;20.55;;;25.60;99.90;;;;;;5034079;28;20245;-77
2022/10/29 09:56:32;;;;;;;14.73;13.25;;;26.20;99.90;;;;;;5033807;28;20635;-77
2022/10/29 09:59:14;;;;;;;12.85;11.57;;;25.80;99.90;;;;;;5033317;28;20186;-76
2022/10/29 10:01:40;;;;;;;12.40;9.27;;;25.90;99.90;;;;;;5034914;28;20183;-77
2022/10/29 10:04:25;;;;;;;13.73;8.52;;;26.50;99.90;;;;;;5040681;28;20189;-76
2022/10/29 10:07:05;;;;;;;13.55;8.60;;;26.40;99.90;;;;;;5038558;28;20237;-77
2022/10/29 10:09:58;;;;;;;12.38;8.35;;;26.60;99.90;;;;;;5035534;28;20273;-77
2022/10/29 10:12:36;;;;;;;9.43;7.25;;;27.70;99.90;;;;;;5034650;28;20186;-77
2022/10/29 10:15:24;;;;;;;16.73;6.22;;;28.20;99.90;;;;;;5034896;28;20194;-77
2022/10/29 10:18:16;;;;;;;8.23;6.22;;;28.20;99.90;;;;;;5034703;28;20225;-77
2022/10/29 10:20:44;;;;;;;9.90;6.70;;;28.00;99.90;;;;;;5033497;28;20190;-78
2022/10/29 10:23:27;;;;;;;14.98;7.72;;;27.40;99.90;;;;;;5033061;28;20248;-77
2022/10/29 10:25:55;;;;;;;12.18;7.38;;;27.40;99.90;;;;;;5034810;28;20693;-77
2022/10/29 10:28:28;;;;;;;14.48;6.63;;;27.50;99.90;;;;;;5034519;28;20211;-77
2022/10/29 10:31:03;;;;;;;14.27;6.57;;;27.80;99.90;;;;;;5034474;28;20209;-77
2022/10/29 10:33:30;;;;;;;9.00;5.80;;;28.10;99.90;;;;;;5033053;28;20189;-77
2022/10/29 10:36:03;;;;;;;9.65;6.25;;;28.60;99.40;;;;;;5033329;28;20179;-77
2022/10/29 10:38:39;;;;;;;9.98;6.47;;;28.90;99.90;;;;;;5034180;28;20271;-76
2022/10/29 10:41:08;;;;;;;13.90;6.53;;;28.60;99.60;;;;;;5034451;28;20254;-76
2022/10/29 10:43:34;;;;;;;18.88;7.18;;;28.50;99.80;;;;;;5033849;28;20175;-76
2022/10/29 10:46:10;;;;;;;8.77;6.28;;;28.40;99.50;;;;;;5049128;28;20206;-76
2022/10/29 10:48:35;;;;;;;14.63;7.22;;;28.10;99.70;;;;;;5107248;22;20322;-78
2022/10/29 10:51:25;;;;;;;15.18;6.30;;;28.40;99.20;;;;;;5098206;28;20781;-78
2022/10/29 10:53:51;;;;;;;18.00;7.07;;;28.60;98.70;;;;;;5099801;28;20273;-76
2022/10/29 10:56:20;;;;;;;12.70;6.75;;;29.10;98.10;;;;;;5098004;28;20580;-76
2022/10/29 10:59:13;;;;;;;11.90;6.00;;;29.20;98.00;;;;;;5081770;28;20209;-77
2022/10/29 11:01:49;;;;;;;13.35;7.47;;;29.30;97.90;;;;;;5081393;28;20276;-77
2022/10/29 11:04:22;;;;;;;11.38;6.65;;;29.40;97.10;;;;;;5085668;28;20252;-75
2022/10/29 11:06:50;;;;;;;9.25;7.30;;;29.30;96.70;;;;;;5086170;28;20277;-77
2022/10/29 11:09:30;;;;;;;14.02;7.90;;;29.30;96.60;;;;;;5086855;28;20180;-77
2022/10/29 11:12:04;;;;;;;14.18;8.00;;;29.50;96.60;;;;;;5082309;28;20618;-77
2022/10/29 11:15:08;;;;;;;21.13;19.55;;;30.10;94.70;;;;;;5080409;28;20177;-77
2022/10/29 11:17:46;;;;;;;62.90;59.05;;;31.50;92.10;;;;;;5075554;28;20225;-76
2022/10/29 11:20:20;;;;;;;81.07;76.30;;;31.40;90.40;;;;;;5079260;28;20182;-76
2022/10/29 11:23:12;;;;;;;73.43;68.75;;;31.40;90.40;;;;;;5070826;28;20178;-77
2022/10/29 11:25:47;;;;;;;63.50;59.20;;;30.50;90.70;;;;;;5072135;28;20529;-75
2022/10/29 11:28:32;;;;;;;81.75;76.85;;;30.30;91.20;;;;;;5075994;28;20201;-75
2022/10/29 11:31:08;;;;;;;94.32;88.28;;;31.10;89.30;;;;;;5077085;28;20526;-76
2022/10/29 11:33:51;;;;;;;88.63;83.20;;;31.00;88.20;;;;;;5072449;28;20188;-75
2022/10/29 11:36:26;;;;;;;68.57;64.18;;;30.80;89.90;;;;;;5072033;28;20277;-76
2022/10/29 11:38:58;;;;;;;92.55;87.25;;;30.60;90.10;;;;;;5073497;28;20813;-77
2022/10/29 11:41:45;;;;;;;96.85;91.10;;;31.60;85.10;;;;;;5077769;28;20206;-78
2022/10/29 11:44:16;;;;;;;44.65;41.45;;;32.30;84.10;;;;;;5083091;28;20216;-77
2022/10/29 11:47:07;;;;;;;40.13;36.75;;;33.30;78.00;;;;;;5073417;28;20197;-75
2022/10/29 11:49:41;;;;;;;55.15;51.63;;;32.40;78.00;;;;;;5073905;28;20220;-77
2022/10/29 11:52:21;;;;;;;50.55;46.85;;;31.90;79.80;;;;;;5072031;28;20208;-77
2022/10/29 11:55:11;;;;;;;88.90;83.75;;;32.50;79.50;;;;;;5050900;28;20209;-77
2022/10/29 11:57:43;;;;;;;78.65;73.57;;;32.10;81.40;;;;;;5056406;28;20216;-77
2022/10/29 12:00:15;;;;;;;78.85;74.18;;;32.10;80.90;;;;;;5062874;28;20197;-77
2022/10/29 12:02:47;;;;;;;80.20;74.65;;;32.00;81.20;;;;;;5058016;28;20200;-77
2022/10/29 12:05:34;;;;;;;91.70;85.32;;;31.20;82.70;;;;;;5070171;28;20216;-75
2022/10/29 12:08:34;;;;;;;92.75;87.53;;;31.20;83.10;;;;;;5069638;28;20696;-75
2022/10/29 12:11:12;;;;;;;80.53;75.63;;;31.60;82.20;;;;;;5070628;28;20189;-77
2022/10/29 12:14:02;;;;;;;90.47;85.20;;;31.60;81.90;;;;;;5071284;28;20258;-77
2022/10/29 12:16:37;;;;;;;62.00;58.03;;;32.00;80.70;;;;;;5069950;28;20683;-77
2022/10/29 12:19:21;;;;;;;35.22;32.72;;;32.30;77.50;;;;;;5069903;28;20592;-76
2022/10/29 12:21:46;;;;;;;36.72;33.58;;;32.30;73.60;;;;;;5071520;28;20181;-77
2022/10/29 12:24:28;;;;;;;32.85;30.42;;;32.80;73.40;;;;;;5071373;28;20594;-77
2022/10/29 12:27:05;;;;;;;22.10;10.82;;;32.70;72.80;;;;;;5074011;28;20216;-77
2022/10/29 12:30:08;;;;;;;21.27;19.08;;;32.70;72.10;;;;;;5076905;28;20191;-77
2022/10/29 12:32:58;;;;;;;24.25;22.23;;;31.60;73.90;;;;;;5064417;28;20569;-76
2022/10/29 12:35:39;;;;;;;51.92;48.38;;;31.20;76.80;;;;;;5078575;28;20193;-76
2022/10/29 12:38:14;;;;;;;78.05;73.20;;;31.10;79.60;;;;;;5077238;28;20269;-77
2022/10/29 12:40:43;;;;;;;74.65;70.00;;;31.80;79.10;;;;;;5075298;28;20177;-77
2022/10/29 12:43:22;;;;;;;83.45;78.15;;;31.90;79.40;;;;;;5075805;28;20184;-76
2022/10/29 12:45:54;;;;;;;94.22;88.60;;;31.40;79.60;;;;;;5074831;28;20181;-78
2022/10/29 12:48:46;;;;;;;101.28;95.35;;;31.10;81.90;;;;;;5073697;28;20680;-78
2022/10/29 12:51:47;;;;;;;82.68;77.63;;;31.20;80.50;;;;;;5072239;28;20185;-77
2022/10/29 12:54:36;;;;;;;62.15;58.38;;;31.90;79.70;;;;;;5072004;28;20607;-76